Catalina Provider — WDI6530 — position and weather

sailwx.info

Track history (hours):
 
Tides and Currents Weather Stations Pressure Air Temp Water Temp Dewpoint Dewpoint Depression Visibility Wind Speed Wind Dir Waves Ship Positions

Catalina Provider

Owner: Avalon Freight Service LLC, San Pedro, CA. More information available from US FCC via Universal Licensing System and Coast Guard Vessel Documentation Center.

Last reported at 2017-Nov-23 10:11 UTC. Time now 2017-Nov-24 12:49 UTC.
Position N 33°40' W 118°15'.

Length 45 m; draft 1.7 m.

Type: Cargo ship. MMSI: 367719640.

Date/timePositionNaut miles runAvg speedWind from/ knotsBaromVisibWave heightAir tempDewpointWater temp
2017-Nov-23 10:11N 33°40' W 118°15'1 8.3
2017-Nov-23 10:00N 33°39' W 118°15'5 8.5
2017-Nov-23 09:26N 33°34' W 118°16'4 8.6
2017-Nov-23 08:58N 33°30' W 118°17'4 8.4
2017-Nov-23 08:30N 33°26' W 118°17'4 8.2
2017-Nov-23 08:00N 33°22' W 118°18'1 0.4
2017-Nov-23 05:34N 33°21' W 118°18'1 8.5
2017-Nov-23 05:30N 33°22' W 118°18'4 8.6
2017-Nov-23 05:00N 33°26' W 118°18'5 8.5
2017-Nov-23 04:28N 33°31' W 118°17'4 8.4
2017-Nov-23 04:00N 33°35' W 118°16'4 8.1
2017-Nov-23 03:29N 33°39' W 118°15'  
2017-Nov-18 08:20N 33°41' W 118°14'5 8.0
2017-Nov-18 07:44N 33°36' W 118°15'8 7.6
2017-Nov-18 06:42N 33°28' W 118°16'3 7.7
2017-Nov-18 06:20N 33°25' W 118°17'3 7.6
2017-Nov-18 06:00N 33°23' W 118°18'2 0.8
2017-Nov-18 03:28N 33°21' W 118°18'20 8.2
2017-Nov-18 01:05N 33°40' W 118°15'1 0.0
2017-Nov-17 07:55N 33°41' W 118°14'3 8.3
2017-Nov-17 07:30N 33°37' W 118°15'4 8.0
2017-Nov-17 07:00N 33°33' W 118°15'5 7.9
2017-Nov-17 06:20N 33°28' W 118°16'3 7.8
2017-Nov-17 06:00N 33°26' W 118°17'4 7.7
2017-Nov-17 05:29N 33°22' W 118°18'2 1.1
2017-Nov-17 04:05N 33°20' W 118°19'0 0.0
2017-Nov-17 04:00N 33°20' W 118°19'0 0.3
2017-Nov-17 03:31N 33°20' W 118°19'4 7.6
2017-Nov-17 03:00N 33°24' W 118°17'4 8.2
2017-Nov-17 02:30N 33°28' W 118°16'4 8.4
2017-Nov-17 02:00N 33°32' W 118°16'4 8.2
2017-Nov-17 01:30N 33°36' W 118°15'4 0.2
2017-Nov-16 08:27N 33°40' W 118°14'3 7.9
2017-Nov-16 08:00N 33°37' W 118°15'4 7.8
2017-Nov-16 07:30N 33°33' W 118°16'4 7.8
2017-Nov-16 07:00N 33°29' W 118°17'4 8.0
2017-Nov-16 06:29N 33°25' W 118°18'4 8.2
2017-Nov-16 06:00N 33°21' W 118°18'1 1.8
2017-Nov-16 05:28N 33°20' W 118°19'0 0.0
2017-Nov-16 05:00N 33°20' W 118°19'0 0.0
2017-Nov-16 04:30N 33°20' W 118°19'0 0.0
2017-Nov-16 04:00N 33°20' W 118°19'3 5.9
2017-Nov-16 03:28N 33°23' W 118°17'4 8.5
2017-Nov-16 03:00N 33°27' W 118°16'4 8.7
2017-Nov-16 02:30N 33°31' W 118°16'4 8.8
2017-Nov-16 02:00N 33°36' W 118°15'3 0.2
2017-Nov-15 07:44N 33°39' W 118°14'3 8.2
2017-Nov-15 07:24N 33°36' W 118°14'3 8.2
2017-Nov-15 07:01N 33°33' W 118°15'4 7.9
2017-Nov-15 06:30N 33°29' W 118°16'4 8.0
2017-Nov-15 06:00N 33°25' W 118°18'4 1.4
2017-Nov-15 03:14N 33°21' W 118°18'2 8.6
2017-Nov-15 02:58N 33°24' W 118°18'4 8.6
2017-Nov-15 02:30N 33°27' W 118°17'4 8.5
2017-Nov-15 02:00N 33°32' W 118°16'4 8.4
2017-Nov-15 01:30N 33°36' W 118°16'4 0.2
2017-Nov-14 07:51N 33°40' W 118°15'3 8.4
2017-Nov-14 07:30N 33°37' W 118°15'5 8.0
2017-Nov-14 06:50N 33°32' W 118°16'4 8.1
2017-Nov-14 06:18N 33°27' W 118°17'4 8.3
2017-Nov-14 05:52N 33°24' W 118°18'3 8.3
2017-Nov-14 05:30N 33°21' W 118°18'1 1.4
2017-Nov-14 05:00N 33°20' W 118°19'0 0.0
2017-Nov-14 04:30N 33°20' W 118°19'0 0.0
2017-Nov-14 03:56N 33°20' W 118°19'0 0.0
2017-Nov-14 03:28N 33°20' W 118°19'2 5.1
2017-Nov-14 03:00N 33°23' W 118°18'4 8.4
2017-Nov-14 02:30N 33°27' W 118°17'4 8.5
2017-Nov-14 02:00N 33°31' W 118°16'5 8.4
2017-Nov-14 01:27N 33°35' W 118°16'4 8.2
2017-Nov-14 01:00N 33°39' W 118°15'4 7.5
2017-Nov-14 00:30N 33°43' W 118°16'2 4.5
2017-Nov-14 00:00N 33°45' W 118°16'  
Track history (hours):
 
Tides and Currents Weather Stations Pressure Air Temp Water Temp Dewpoint Dewpoint Depression Visibility Wind Speed Wind Dir Waves Ship Positions

Catalina Provider

Owner: Avalon Freight Service LLC, San Pedro, CA. More information available from US FCC via Universal Licensing System and Coast Guard Vessel Documentation Center.

Last reported at 2017-Nov-23 10:11 UTC. Time now 2017-Nov-24 12:49 UTC.
Position N 33°40' W 118°15'.

Length 45 m; draft 1.7 m.

Type: Cargo ship. MMSI: 367719640.

Date/timePositionNaut miles runAvg speedWind from/ knotsBaromVisibWave heightAir tempDewpointWater temp
2017-Nov-23 10:11N 33°40' W 118°15'1 8.3
2017-Nov-23 10:00N 33°39' W 118°15'5 8.5
2017-Nov-23 09:26N 33°34' W 118°16'4 8.6
2017-Nov-23 08:58N 33°30' W 118°17'4 8.4
2017-Nov-23 08:30N 33°26' W 118°17'4 8.2
2017-Nov-23 08:00N 33°22' W 118°18'1 0.4
2017-Nov-23 05:34N 33°21' W 118°18'1 8.5
2017-Nov-23 05:30N 33°22' W 118°18'4 8.6
2017-Nov-23 05:00N 33°26' W 118°18'5 8.5
2017-Nov-23 04:28N 33°31' W 118°17'4 8.4
2017-Nov-23 04:00N 33°35' W 118°16'4 8.1
2017-Nov-23 03:29N 33°39' W 118°15'  
2017-Nov-18 08:20N 33°41' W 118°14'5 8.0
2017-Nov-18 07:44N 33°36' W 118°15'8 7.6
2017-Nov-18 06:42N 33°28' W 118°16'3 7.7
2017-Nov-18 06:20N 33°25' W 118°17'3 7.6
2017-Nov-18 06:00N 33°23' W 118°18'2 0.8
2017-Nov-18 03:28N 33°21' W 118°18'20 8.2
2017-Nov-18 01:05N 33°40' W 118°15'1 0.0
2017-Nov-17 07:55N 33°41' W 118°14'3 8.3
2017-Nov-17 07:30N 33°37' W 118°15'4 8.0
2017-Nov-17 07:00N 33°33' W 118°15'5 7.9
2017-Nov-17 06:20N 33°28' W 118°16'3 7.8
2017-Nov-17 06:00N 33°26' W 118°17'4 7.7
2017-Nov-17 05:29N 33°22' W 118°18'2 1.1
2017-Nov-17 04:05N 33°20' W 118°19'0 0.0
2017-Nov-17 04:00N 33°20' W 118°19'0 0.3
2017-Nov-17 03:31N 33°20' W 118°19'4 7.6
2017-Nov-17 03:00N 33°24' W 118°17'4 8.2
2017-Nov-17 02:30N 33°28' W 118°16'4 8.4
2017-Nov-17 02:00N 33°32' W 118°16'4 8.2
2017-Nov-17 01:30N 33°36' W 118°15'4 0.2
2017-Nov-16 08:27N 33°40' W 118°14'3 7.9
2017-Nov-16 08:00N 33°37' W 118°15'4 7.8
2017-Nov-16 07:30N 33°33' W 118°16'4 7.8
2017-Nov-16 07:00N 33°29' W 118°17'4 8.0
2017-Nov-16 06:29N 33°25' W 118°18'4 8.2
2017-Nov-16 06:00N 33°21' W 118°18'1 1.8
2017-Nov-16 05:28N 33°20' W 118°19'0 0.0
2017-Nov-16 05:00N 33°20' W 118°19'0 0.0
2017-Nov-16 04:30N 33°20' W 118°19'0 0.0
2017-Nov-16 04:00N 33°20' W 118°19'3 5.9
2017-Nov-16 03:28N 33°23' W 118°17'4 8.5
2017-Nov-16 03:00N 33°27' W 118°16'4 8.7
2017-Nov-16 02:30N 33°31' W 118°16'4 8.8
2017-Nov-16 02:00N 33°36' W 118°15'3 0.2
2017-Nov-15 07:44N 33°39' W 118°14'3 8.2
2017-Nov-15 07:24N 33°36' W 118°14'3 8.2
2017-Nov-15 07:01N 33°33' W 118°15'4 7.9
2017-Nov-15 06:30N 33°29' W 118°16'4 8.0
2017-Nov-15 06:00N 33°25' W 118°18'4 1.4
2017-Nov-15 03:14N 33°21' W 118°18'2 8.6
2017-Nov-15 02:58N 33°24' W 118°18'4 8.6
2017-Nov-15 02:30N 33°27' W 118°17'4 8.5
2017-Nov-15 02:00N 33°32' W 118°16'4 8.4
2017-Nov-15 01:30N 33°36' W 118°16'4 0.2
2017-Nov-14 07:51N 33°40' W 118°15'3 8.4
2017-Nov-14 07:30N 33°37' W 118°15'5 8.0
2017-Nov-14 06:50N 33°32' W 118°16'4 8.1
2017-Nov-14 06:18N 33°27' W 118°17'4 8.3
2017-Nov-14 05:52N 33°24' W 118°18'3 8.3
2017-Nov-14 05:30N 33°21' W 118°18'1 1.4
2017-Nov-14 05:00N 33°20' W 118°19'0 0.0
2017-Nov-14 04:30N 33°20' W 118°19'0 0.0
2017-Nov-14 03:56N 33°20' W 118°19'0 0.0
2017-Nov-14 03:28N 33°20' W 118°19'2 5.1
2017-Nov-14 03:00N 33°23' W 118°18'4 8.4
2017-Nov-14 02:30N 33°27' W 118°17'4 8.5
2017-Nov-14 02:00N 33°31' W 118°16'5 8.4
2017-Nov-14 01:27N 33°35' W 118°16'4 8.2
2017-Nov-14 01:00N 33°39' W 118°15'4 7.5
2017-Nov-14 00:30N 33°43' W 118°16'2 4.5
2017-Nov-14 00:00N 33°45' W 118°16'  

Dump ship's entire track history